createdAt,value
2022-11-17T00:28:21.634Z,85.54
2022-11-17T00:58:21.639Z,85.35
2022-11-17T01:28:21.653Z,85.56
2022-11-17T01:58:21.648Z,85.67
2022-11-17T02:28:21.653Z,85.59
2022-11-17T02:58:21.660Z,85.8
2022-11-17T03:28:21.663Z,85.73
2022-11-17T03:58:21.671Z,85.91
2022-11-17T04:28:21.684Z,85.89
2022-11-17T04:58:21.672Z,85.87
2022-11-17T05:28:21.693Z,86.08
2022-11-17T05:58:21.701Z,86.17
2022-11-17T06:28:21.699Z,86.12
2022-11-17T06:58:21.736Z,86.31
2022-11-17T07:28:21.763Z,86.62
2022-11-17T07:58:21.732Z,86.75
2022-11-17T08:28:21.729Z,86.97
2022-11-17T08:58:21.716Z,86.61
2022-11-17T09:28:21.717Z,87.02
2022-11-17T09:58:21.719Z,86.86
2022-11-17T10:28:21.720Z,86.56
2022-11-17T10:58:21.722Z,85.82
2022-11-17T11:28:21.751Z,86.8
2022-11-17T11:58:21.760Z,86.72
2022-11-17T12:28:21.751Z,85.75
2022-11-17T13:17:22.151Z,87.91
2022-11-17T13:47:22.002Z,91.29
2022-11-17T14:17:22.037Z,92.25
2022-11-17T14:47:22.009Z,93.09
2022-11-17T15:17:22.023Z,93.8
2022-11-17T15:47:22.015Z,94.46
2022-11-17T16:17:22.014Z,94.89
2022-11-17T16:47:22.035Z,95.71
2022-11-17T17:17:22.041Z,95.63
2022-11-17T17:47:22.060Z,95.59
2022-11-17T18:17:22.046Z,96.41
2022-11-17T18:47:22.045Z,96.59
2022-11-17T19:17:22.045Z,96.46
2022-11-17T19:47:22.051Z,96.72
2022-11-17T20:17:22.059Z,96.7
2022-11-17T20:47:22.048Z,96.73
2022-11-17T21:17:22.140Z,96.87
2022-11-17T21:47:22.055Z,97.18
2022-11-17T22:17:22.083Z,97.38
2022-11-17T22:47:22.077Z,97.41
2022-11-17T23:17:22.083Z,97.61
2022-11-17T23:47:22.084Z,97.34
